Latest Weather Observations for Combienbar

IDV60801

Issued at 11:35 pm EST Wednesday 16 April 2014 (issued every 30 minutes, with the page automatically refreshed every 10 minutes)

About weather observations | Map of weather stations | Latest weather observations for VIC | Other Formats
Station Details ID: 084143 Name: COMBIENBAR AWS Lat: -37.34 Lon: 149.02 Height: 640.0 m
Data from the previous 72 hours. | See also: Recent months at Combienbar
Date/Time
EST
Temp
°C
App
Temp
°C
Dew
Point
Rel
Hum
%
Delta-T
°C
Wind Press
QNH
hPa
Press
MSL
hPa
Rain
since 9 am
mm
Dir
 
Spd
km/h
Gust
km/h
Spd
kts
Gust
kts
16/11:30pm 9.2 8.8 8.4 95 0.4 NNE 0 0 0 0 1021.3 - 0.0
16/11:00pm 9.3 9.0 8.5 95 0.4 NNE 0 0 0 0 1021.4 1020.3 0.0
16/10:30pm 9.3 8.9 8.4 94 0.5 CALM 0 0 0 0 1021.5 - 0.0
16/10:00pm 9.9 9.7 9.1 95 0.4 CALM 0 0 0 0 1021.6 1020.5 0.0
16/09:30pm 9.7 9.4 8.8 94 0.5 CALM 0 0 0 0 1021.6 - 0.0
16/09:00pm 9.9 9.7 9.0 94 0.5 CALM 0 0 0 0 1021.5 1020.4 0.0
16/08:30pm 10.0 9.8 8.9 93 0.6 CALM 0 0 0 0 1021.4 - 0.0
16/08:00pm 10.3 10.1 9.2 93 0.6 CALM 0 0 0 0 1021.3 1020.2 0.0
16/07:30pm 10.7 10.6 9.3 91 0.7 SSW 0 0 0 0 1021.0 - 0.0
16/07:00pm 11.3 11.3 9.9 91 0.7 CALM 0 0 0 0 1020.9 1019.9 0.0
16/06:30pm 11.0 10.9 9.6 91 0.7 CALM 0 0 0 0 1020.8 - 0.0
16/06:00pm 11.3 11.3 9.7 90 0.8 SSW 0 0 0 0 1020.6 1019.6 0.0
16/05:30pm 11.6 11.6 9.7 88 1.0 CALM 0 0 0 0 1020.4 - 0.0
16/05:00pm 12.3 12.4 10.0 86 1.2 CALM 0 0 0 0 1020.3 1019.2 0.0
16/04:30pm 13.1 13.3 10.5 84 1.4 CALM 0 0 0 0 1020.2 - 0.0
16/04:00pm 13.7 13.9 10.7 82 1.6 CALM 0 7 0 4 1020.2 1019.1 0.0
16/03:30pm 14.1 14.1 9.9 76 2.2 CALM 0 0 0 0 1020.1 - 0.0
16/03:00pm 15.1 15.2 10.1 72 2.7 CALM 0 0 0 0 1020.2 1019.1 0.0
16/02:30pm 15.9 15.8 9.6 66 3.4 CALM 0 0 0 0 1020.3 - 0.0
16/02:00pm 16.5 16.1 9.9 65 3.6 E 2 6 1 3 1020.3 1019.2 0.0
16/01:30pm 16.3 16.2 9.5 64 3.7 CALM 0 4 0 2 1020.5 - 0.0
16/01:00pm 15.3 14.4 7.8 61 3.9 E 2 7 1 4 1020.8 1019.8 0.0
16/12:30pm 14.8 14.2 9.0 68 3.1 E 2 4 1 2 1020.9 - 0.0
16/12:00pm 14.9 13.6 7.7 62 3.7 ESE 4 9 2 5 1021.4 1020.3 0.0
16/11:30am 14.7 13.6 8.4 66 3.3 ESE 4 9 2 5 1021.7 - 0.0
16/11:00am 14.3 13.8 8.0 66 3.2 CALM 0 2 0 1 1022.0 1021.0 0.0
16/10:30am 14.2 13.8 8.2 67 3.1 CALM 0 6 0 3 1022.2 - 0.0
16/10:00am 13.6 13.4 9.1 74 2.4 SE 0 4 0 2 1022.3 1021.3 0.0
16/09:30am 12.4 11.5 6.2 66 3.0 CALM 0 0 0 0 1022.7 - 0.0
16/09:00am 13.4 13.5 10.2 81 1.7 CALM 0 0 0 0 1022.9 1021.8 3.8
16/08:30am 12.7 12.5 9.0 78 1.9 NE 0 0 0 0 1023.0 - 3.8
16/08:00am 10.5 9.6 5.9 73 2.2 CALM 0 0 0 0 1022.7 1021.7 3.8
16/07:30am 10.4 8.8 4.3 66 2.8 NW 2 4 1 2 1022.6 - 3.8
16/07:00am 9.3 8.0 4.3 71 2.3 CALM 0 6 0 3 1022.4 1021.4 3.8
16/06:30am 8.7 7.6 4.9 77 1.8 CALM 0 0 0 0 1022.3 - 3.8
16/06:00am 8.7 7.7 5.6 81 1.5 NNW 0 0 0 0 1022.2 1021.2 3.8
16/05:30am 8.7 7.7 5.8 82 1.4 CALM 0 0 0 0 1022.1 - 3.8
16/05:00am 8.3 7.4 6.1 86 1.0 CALM 0 0 0 0 1022.1 1021.1 3.8
16/04:30am 8.8 7.9 6.1 83 1.3 CALM 0 2 0 1 1022.1 - 3.8
16/04:00am 8.8 7.5 6.1 83 1.3 WNW 2 6 1 3 1022.3 1021.3 3.8
16/03:30am 8.6 7.8 6.7 88 0.9 CALM 0 4 0 2 1022.4 - 3.8
16/03:00am 8.6 7.9 6.9 89 0.8 CALM 0 0 0 0 1022.3 1021.3 3.8
16/02:30am 8.7 8.0 6.8 88 0.9 CALM 0 0 0 0 1022.6 - 3.8
16/02:00am 8.6 7.9 6.9 89 0.8 CALM 0 0 0 0 1022.7 1021.7 3.8
16/01:30am 9.1 8.5 7.5 90 0.8 CALM 0 4 0 2 1023.3 - 3.8
16/01:00am 8.6 7.9 7.1 90 0.7 CALM 0 2 0 1 1023.5 1022.5 3.8
16/12:30am 8.5 7.8 7.1 91 0.7 CALM 0 4 0 2 1023.7 - 3.8
16/12:00am 8.6 8.0 7.4 92 0.6 SW 0 2 0 1 1023.8 1022.8 3.8
 
Date/Time
EST
Temp
°C
App
Temp
°C
Dew
Point
Rel
Hum
%
Delta-T
°C
Wind Press
QNH
hPa
Press
MSL
hPa
Rain
since 9 am
mm
Dir
 
Spd
km/h
Gust
km/h
Spd
kts
Gust
kts
15/11:30pm 8.7 8.1 7.6 93 0.5 CALM 0 7 0 4 1023.9 - 3.8
15/11:00pm 8.9 8.4 8.0 94 0.4 CALM 0 4 0 2 1024.2 1023.2 3.8
15/10:30pm 9.0 8.6 8.1 94 0.4 CALM 0 0 0 0 1024.6 - 3.8
15/10:00pm 9.4 9.1 8.6 95 0.4 CALM 0 0 0 0 1024.6 1023.5 3.8
15/09:30pm 9.8 9.6 9.0 95 0.4 CALM 0 0 0 0 1024.6 - 3.8
15/09:00pm 9.9 9.7 9.1 95 0.4 CALM 0 0 0 0 1024.4 1023.4 3.8
15/08:30pm 9.9 9.7 9.1 95 0.4 CALM 0 0 0 0 1024.6 - 3.8
15/08:00pm 9.8 9.6 9.0 95 0.4 CALM 0 0 0 0 1024.3 1023.3 3.8
15/07:30pm 10.0 9.8 9.2 95 0.4 CALM 0 0 0 0 1024.3 - 3.8
15/07:00pm 10.0 9.8 9.2 95 0.4 CALM 0 0 0 0 1024.4 1023.4 3.8
15/06:30pm 10.0 9.9 9.4 96 0.3 CALM 0 0 0 0 1024.2 - 3.8
15/06:00pm 10.1 10.0 9.5 96 0.3 CALM 0 0 0 0 1023.9 1022.9 3.8
15/05:30pm 10.1 10.0 9.5 96 0.3 CALM 0 4 0 2 1023.6 - 3.8
15/05:00pm 10.4 10.4 9.9 97 0.3 CALM 0 4 0 2 1023.6 1022.6 3.8
15/04:30pm 10.6 10.7 10.3 98 0.2 CALM 0 4 0 2 1023.5 - 3.8
15/04:00pm 10.9 11.1 10.6 98 0.2 CALM 0 0 0 0 1023.5 1022.5 3.8
15/03:30pm 10.6 10.7 10.3 98 0.2 CALM 0 2 0 1 1023.3 - 3.8
15/03:00pm 10.7 10.9 10.4 98 0.2 CALM 0 0 0 0 1023.3 1022.2 3.8
15/02:30pm 10.5 10.6 10.2 98 0.2 CALM 0 0 0 0 1023.3 - 3.6
15/02:00pm 10.8 11.0 10.5 98 0.2 CALM 0 0 0 0 1023.2 1022.1 3.4
15/01:30pm 10.9 11.1 10.6 98 0.2 CALM 0 0 0 0 1023.3 - 3.4
15/01:00pm 11.3 11.3 11.0 98 0.2 SSW 2 6 1 3 1023.2 1022.1 2.0
15/12:30pm 11.4 11.4 11.1 98 0.2 SSW 2 4 1 2 1023.5 - 2.0
15/12:00pm 11.4 11.7 10.9 97 0.3 CALM 0 4 0 2 1023.8 1022.8 1.8
15/11:30am 11.3 11.6 10.8 97 0.3 CALM 0 0 0 0 1024.1 - 1.2
15/11:00am 11.4 11.7 10.9 97 0.3 CALM 0 0 0 0 1024.2 1023.2 1.2
15/10:30am 11.1 11.3 10.5 96 0.3 CALM 0 0 0 0 1024.2 - 1.0
15/10:00am 11.2 11.4 10.4 95 0.4 CALM 0 0 0 0 1024.2 1023.2 0.4
15/09:30am 11.6 11.9 10.8 95 0.4 CALM 0 0 0 0 1024.1 - 0.0
15/09:00am 11.8 12.2 11.2 96 0.3 CALM 0 0 0 0 1024.1 1023.1 0.6
15/08:30am 10.3 9.9 9.8 97 0.3 W 2 7 1 4 1024.0 - 0.6
15/08:00am 9.4 9.1 8.8 96 0.3 CALM 0 0 0 0 1024.0 1023.0 0.6
15/07:30am 9.2 8.9 8.6 96 0.3 CALM 0 0 0 0 1023.9 - 0.6
15/07:00am 9.2 8.8 8.3 94 0.4 CALM 0 0 0 0 1023.7 1022.7 0.6
15/06:30am 9.1 8.6 8.0 93 0.5 CALM 0 0 0 0 1023.4 - 0.6
15/06:00am 9.3 8.8 7.9 91 0.7 CALM 0 0 0 0 1023.3 1022.2 0.6
15/05:30am 9.3 8.8 7.7 90 0.8 CALM 0 2 0 1 1023.2 - 0.6
15/05:00am 9.4 8.9 7.7 89 0.8 CALM 0 0 0 0 1023.1 1022.0 0.6
15/04:30am 9.7 9.0 7.1 84 1.3 CALM 0 2 0 1 1023.0 - 0.6
15/04:00am 9.6 9.0 7.2 85 1.2 CALM 0 2 0 1 1023.1 1022.0 0.6
15/03:30am 9.6 9.0 7.5 87 1.0 CALM 0 4 0 2 1023.0 - 0.6
15/03:00am 9.8 8.7 7.1 83 1.3 SSW 2 6 1 3 1022.9 1021.8 0.6
15/02:30am 10.0 8.9 7.1 82 1.4 WSW 2 7 1 4 1022.9 - 0.6
15/02:00am 9.7 8.6 7.1 84 1.3 SW 2 6 1 3 1023.4 1022.4 0.6
15/01:30am 9.8 9.2 7.4 85 1.2 CALM 0 4 0 2 1023.6 - 0.6
15/01:00am 9.9 9.4 7.7 86 1.1 CALM 0 0 0 0 1023.7 1022.7 0.6
15/12:30am 9.9 9.3 7.5 85 1.2 CALM 0 0 0 0 1023.8 - 0.6
15/12:00am 9.8 9.2 7.2 84 1.3 CALM 0 2 0 1 1023.8 1022.8 0.6
 
Date/Time
EST
Temp
°C
App
Temp
°C
Dew
Point
Rel
Hum
%
Delta-T
°C
Wind Press
QNH
hPa
Press
MSL
hPa
Rain
since 9 am
mm
Dir
 
Spd
km/h
Gust
km/h
Spd
kts
Gust
kts
14/11:30pm 9.7 9.0 7.1 84 1.3 CALM 0 4 0 2 1023.8 - 0.6
14/11:00pm 9.6 8.1 7.0 84 1.3 W 4 7 2 4 1023.9 1022.9 0.6
14/10:30pm 9.3 8.7 7.3 87 1.0 CALM 0 2 0 1 1024.1 - 0.6
14/10:00pm 9.7 8.8 7.8 88 0.9 SW 2 6 1 3 1024.2 1023.2 0.6
14/09:30pm 9.6 9.1 7.7 88 0.9 CALM 0 6 0 3 1024.3 - 0.6
14/09:00pm 9.5 9.0 7.9 90 0.8 CALM 0 4 0 2 1024.2 1023.2 0.6
14/08:30pm 9.4 8.8 7.5 88 0.9 CALM 0 0 0 0 1024.2 - 0.6
14/08:00pm 9.3 8.6 7.1 86 1.1 CALM 0 0 0 0 1024.2 1023.2 0.6
14/07:30pm 9.5 8.7 6.6 82 1.4 CALM 0 6 0 3 1024.0 - 0.6
14/07:00pm 8.7 7.9 6.5 86 1.1 CALM 0 4 0 2 1023.9 1022.9 0.6
14/06:30pm 8.6 7.8 6.6 87 1.0 CALM 0 0 0 0 1023.6 - 0.6
14/06:00pm 9.0 8.3 7.1 88 0.9 CALM 0 0 0 0 1023.2 1022.1 0.6
14/05:30pm 9.2 8.1 7.0 86 1.1 SSW 2 4 1 2 1023.0 - 0.6
14/05:00pm 9.7 8.6 7.1 84 1.3 SSW 2 4 1 2 1022.9 1021.8 0.6
14/04:30pm 11.1 10.3 8.3 83 1.4 SSW 2 2 1 1 1022.7 - 0.6
14/04:00pm 12.5 12.3 9.0 79 1.8 CALM 0 4 0 2 1022.6 1021.6 0.6
14/03:30pm 11.2 10.8 8.2 82 1.5 CALM 0 4 0 2 1022.6 - 0.6
14/03:00pm 11.1 10.2 7.6 79 1.7 SSW 2 6 1 3 1022.6 1021.6 0.6
14/02:30pm 11.9 11.7 8.9 82 1.6 CALM 0 2 0 1 1022.5 - 0.6
14/02:00pm 12.4 12.1 8.5 77 2.0 CALM 0 0 0 0 1022.7 1021.7 0.6
14/01:30pm 12.8 12.4 9.6 81 1.7 SSW 2 4 1 2 1022.9 - 0.6
14/01:00pm 12.9 13.1 10.6 86 1.2 CALM 0 2 0 1 1023.1 1022.0 0.6
14/12:30pm 11.7 11.3 9.8 88 1.0 SSW 2 4 1 2 1023.4 - 0.6
14/12:00pm 11.9 11.8 10.8 93 0.6 SW 2 4 1 2 1023.6 1022.6 0.6
14/11:30am 10.6 9.9 10.0 96 0.3 SSW 4 7 2 4 1023.8 - 0.6
14/11:00am 11.4 11.3 10.9 97 0.3 SSW 2 7 1 4 1023.8 1022.8 0.4
14/10:30am 11.2 11.5 11.0 99 0.1 CALM 0 2 0 1 1023.9 - 0.4
14/10:00am 10.1 10.1 9.8 98 0.2 CALM 0 2 0 1 1024.0 1023.0 0.4
14/09:30am 9.6 9.5 9.3 98 0.2 CALM 0 4 0 2 1024.1 - 0.4
14/09:00am 9.4 9.2 9.1 98 0.2 CALM 0 0 0 0 1023.9 1022.9 4.8
14/08:30am 9.1 8.5 8.8 98 0.2 SSW 2 6 1 3 1023.8 - 4.6
14/08:00am 9.3 8.3 9.0 98 0.2 SSW 4 6 2 3 1023.5 1022.5 4.4
14/07:30am 9.2 8.6 8.9 98 0.2 SSW 2 4 1 2 1023.2 - 4.4
14/07:00am 9.1 8.5 8.8 98 0.2 SSW 2 4 1 2 1022.9 1021.8 4.0
14/06:30am 9.0 8.3 8.7 98 0.2 SW 2 9 1 5 1022.6 - 4.0
14/06:00am 9.0 8.3 8.7 98 0.2 SW 2 6 1 3 1022.5 1021.5 3.6
14/05:30am 8.9 8.6 8.6 98 0.2 CALM 0 4 0 2 1022.4 - 3.6
14/05:00am 8.9 8.6 8.6 98 0.2 CALM 0 0 0 0 1022.2 1021.2 3.4
14/04:30am 8.9 8.6 8.5 97 0.2 CALM 0 0 0 0 1022.1 - 3.4
14/04:00am 8.9 8.6 8.5 97 0.2 CALM 0 0 0 0 1022.0 1021.0 3.0
14/03:30am 8.9 8.6 8.5 97 0.2 CALM 0 0 0 0 1021.8 - 2.8
14/03:00am 8.6 8.1 8.0 96 0.3 CALM 0 0 0 0 1021.9 1020.8 2.8
14/02:30am 9.0 8.6 8.4 96 0.3 CALM 0 0 0 0 1022.0 - 2.8
14/02:00am 9.0 8.6 8.2 95 0.4 CALM 0 6 0 3 1022.1 1021.1 2.6
14/01:30am 9.1 8.7 8.2 94 0.4 CALM 0 2 0 1 1022.4 - 2.6
14/01:00am 9.2 8.8 8.4 95 0.4 CALM 0 6 0 3 1022.3 1021.3 2.6
14/12:30am 9.2 8.5 8.4 95 0.4 SW 2 7 1 4 1022.3 - 2.6
14/12:00am 9.1 8.7 8.3 95 0.4 CALM 0 2 0 1 1022.4 1021.4 2.6

Other Formats:

Comma delimited format used in spreadsheet applications
http://www.bom.gov.au/fwo/IDV60801/IDV60801.94914.axf

JavaScript Object Notation format (JSON) in row-major order
http://www.bom.gov.au/fwo/IDV60801/IDV60801.94914.json